Rock Creek, Canada
Current Conditions -  °F | °C
As of 12:00 AM on Saturday 22 Nov 2014 (Local Time) from CYYF Reporting Station
Overcast Overcast  
Wind Chill: 30°   Ceiling: 4000
Heat Index: 39°   Visibility: 15mi
Dew Point: 34°   Wind: 17mph
Humidity: 81%   Direction: 150°SSE
Pressure: 29.31"   Gusts: 23mph
Location:  49.07°N, 118.98°W
Report Text: CYYF 220800Z 15015G20KT 15SM FEW020 BKN040 OVC075 04/01 A2931 RMK SC2SC4AC2 SLP935
Loading
Personal Weather Stations






























Interactive Weather Map New forecast layout! Learn more

10-Day Weather Forecast

Advertisements
Track Severe Weather on mobile